Terminal Aerodrome Forecast
Issued by NWS Missoula, MT

Home | Current Version | Previous Version | Text Only | Print | Product List | Glossary On
Versions: 1 2 3 4 5 6 7 8 9 10 11 12
475
FTUS45 KMSO 301129
TAFMSO
TAF
KMSO 301129Z 3012/0112 17009KT P6SM VCSH FEW100 BKN120
     FM301300 VRB05KT P6SM SCT120
     FM010100 VRB06KT P6SM BKN100=

USA.gov is the U.S. government's official web portal to all federal, state and local government web resources and services.